createdAt,value
2017-10-26T00:00:04.962Z,12.31
2017-10-26T00:02:33.320Z,12.35
2017-10-26T00:05:01.670Z,12.23
2017-10-26T00:07:30.072Z,12.26
2017-10-26T00:09:58.418Z,12.27
2017-10-26T00:12:26.775Z,12.37
2017-10-26T00:14:55.123Z,12.35
2017-10-26T00:17:23.515Z,12.35
2017-10-26T00:19:52.034Z,12.34
2017-10-26T00:22:20.378Z,12.33
2017-10-26T00:24:48.722Z,12.10
2017-10-26T00:27:17.078Z,12.15
2017-10-26T00:29:45.453Z,12.20
2017-10-26T00:32:13.844Z,12.29
2017-10-26T00:34:42.182Z,12.25
2017-10-26T00:37:10.546Z,12.12
2017-10-26T00:39:38.902Z,12.14
2017-10-26T00:42:07.292Z,12.18
2017-10-26T00:44:35.670Z,12.17
2017-10-26T00:47:04.090Z,12.09
2017-10-26T00:49:32.438Z,12.02
2017-10-26T00:52:00.824Z,12.13
2017-10-26T00:54:29.235Z,12.24
2017-10-26T00:56:57.582Z,12.20
2017-10-26T00:59:25.936Z,12.12
2017-10-26T01:01:54.291Z,12.08
2017-10-26T01:04:22.638Z,12.12
2017-10-26T01:06:51.071Z,12.18
2017-10-26T01:09:19.484Z,12.18
2017-10-26T01:11:47.863Z,12.24
2017-10-26T01:14:16.245Z,12.11
2017-10-26T01:16:44.595Z,12.08
2017-10-26T01:19:12.960Z,12.07
2017-10-26T01:21:41.324Z,12.10
2017-10-26T01:24:09.695Z,12.15
2017-10-26T01:26:38.063Z,11.97
2017-10-26T01:29:06.414Z,11.92
2017-10-26T01:31:34.773Z,12.00
2017-10-26T01:34:03.126Z,12.04
2017-10-26T01:36:31.519Z,12.01
2017-10-26T01:38:59.895Z,12.10
2017-10-26T01:41:28.246Z,12.17
2017-10-26T01:43:56.630Z,12.13
2017-10-26T01:46:24.988Z,12.12
2017-10-26T01:48:53.343Z,12.05
2017-10-26T01:51:21.759Z,11.87
2017-10-26T01:53:50.133Z,11.91
2017-10-26T01:56:18.530Z,11.96
2017-10-26T01:58:46.924Z,12.04
2017-10-26T02:01:15.299Z,11.92
2017-10-26T02:03:43.656Z,11.97
2017-10-26T02:06:12.039Z,11.94
2017-10-26T02:08:40.400Z,11.92
2017-10-26T02:11:08.780Z,11.91
2017-10-26T02:13:37.174Z,12.00
2017-10-26T02:16:05.561Z,11.96
2017-10-26T02:18:33.922Z,11.89
2017-10-26T02:21:02.315Z,11.91
2017-10-26T02:23:30.696Z,11.96
2017-10-26T02:25:59.100Z,11.97
2017-10-26T02:28:39.236Z,11.96
2017-10-26T02:31:19.355Z,11.73
2017-10-26T02:33:47.716Z,11.81
2017-10-26T02:36:16.116Z,11.74
2017-10-26T02:38:44.527Z,11.73
2017-10-26T02:41:12.904Z,11.67
2017-10-26T02:43:41.284Z,11.78
2017-10-26T02:46:09.630Z,11.82
2017-10-26T02:48:38.025Z,11.81
2017-10-26T02:51:06.394Z,11.80
2017-10-26T02:53:34.742Z,11.68
2017-10-26T02:56:03.178Z,11.62
2017-10-26T02:58:31.532Z,11.71
2017-10-26T03:00:59.928Z,11.67
2017-10-26T03:03:28.288Z,11.75
2017-10-26T03:05:56.686Z,11.74
2017-10-26T03:08:25.048Z,11.69
2017-10-26T03:10:53.386Z,11.76
2017-10-26T03:13:21.780Z,11.75
2017-10-26T03:15:50.126Z,11.68
2017-10-26T03:18:18.523Z,11.77
2017-10-26T03:20:46.884Z,11.68
2017-10-26T03:23:15.273Z,11.79
2017-10-26T03:25:43.659Z,11.78
2017-10-26T03:28:12.062Z,11.81
2017-10-26T03:30:40.413Z,11.64
2017-10-26T03:33:08.757Z,11.61
2017-10-26T03:35:37.120Z,11.58
2017-10-26T03:38:05.472Z,11.50
2017-10-26T03:40:33.856Z,11.56
2017-10-26T03:43:02.223Z,11.55
2017-10-26T03:45:30.604Z,11.59
2017-10-26T03:47:58.976Z,11.62
2017-10-26T03:50:27.362Z,11.62
2017-10-26T03:52:55.733Z,11.58
2017-10-26T03:55:24.149Z,11.62
2017-10-26T03:57:52.500Z,11.60
2017-10-26T04:00:20.856Z,11.47
2017-10-26T04:02:49.224Z,11.54
2017-10-26T04:05:17.603Z,11.60
2017-10-26T04:07:45.971Z,11.59
2017-10-26T04:10:14.351Z,11.63
2017-10-26T04:12:42.702Z,11.68
2017-10-26T04:15:11.079Z,11.77
2017-10-26T04:17:39.445Z,11.81
2017-10-26T04:20:07.847Z,11.94
2017-10-26T04:22:36.209Z,11.93
2017-10-26T04:25:04.561Z,11.90
2017-10-26T04:27:32.914Z,11.91
2017-10-26T04:30:01.283Z,11.78
2017-10-26T04:32:29.639Z,11.71
2017-10-26T04:34:57.999Z,11.78
2017-10-26T04:37:26.392Z,11.86
2017-10-26T04:39:54.739Z,11.76
2017-10-26T04:42:23.137Z,11.64
2017-10-26T04:44:51.499Z,11.73
2017-10-26T04:47:20.003Z,11.79
2017-10-26T04:49:48.341Z,11.66
2017-10-26T04:52:16.704Z,11.66
2017-10-26T04:54:45.063Z,11.64
2017-10-26T04:57:13.427Z,11.73
2017-10-26T04:59:41.816Z,11.78
2017-10-26T05:02:10.172Z,11.86
2017-10-26T05:04:38.563Z,11.83
2017-10-26T05:07:06.938Z,11.78
2017-10-26T05:09:35.329Z,11.80
2017-10-26T05:12:03.691Z,11.64
2017-10-26T05:14:32.088Z,11.67
2017-10-26T05:17:00.501Z,11.62
2017-10-26T05:19:28.895Z,11.54
2017-10-26T05:21:57.247Z,11.70
2017-10-26T05:24:25.623Z,11.56
2017-10-26T05:26:53.972Z,11.57
2017-10-26T05:29:22.366Z,11.56
2017-10-26T05:31:50.774Z,11.73
2017-10-26T05:34:19.140Z,11.74
2017-10-26T05:36:47.499Z,11.67
2017-10-26T05:39:15.856Z,11.64
2017-10-26T05:41:44.212Z,11.72
2017-10-26T05:44:12.598Z,11.77
2017-10-26T05:46:40.955Z,11.68
2017-10-26T05:49:09.353Z,11.74
2017-10-26T05:51:37.725Z,11.82
2017-10-26T05:54:06.078Z,11.80
2017-10-26T05:56:34.467Z,11.82
2017-10-26T05:59:02.860Z,11.82
2017-10-26T06:01:31.223Z,11.85
2017-10-26T06:03:59.612Z,11.87
2017-10-26T06:06:27.967Z,11.95
2017-10-26T06:08:56.322Z,12.00
2017-10-26T06:11:24.687Z,11.84
2017-10-26T06:13:53.067Z,11.77
2017-10-26T06:16:21.420Z,11.78
2017-10-26T06:18:49.779Z,11.73
2017-10-26T06:21:18.155Z,11.87
2017-10-26T06:23:46.546Z,11.80
2017-10-26T06:26:14.931Z,11.79
2017-10-26T06:28:43.283Z,11.82
2017-10-26T06:31:11.642Z,11.90
2017-10-26T06:33:40.037Z,12.04
2017-10-26T06:36:08.389Z,12.05
2017-10-26T06:38:36.811Z,12.00
2017-10-26T06:41:05.176Z,12.00
2017-10-26T06:43:33.555Z,11.91
2017-10-26T06:46:01.951Z,11.94
2017-10-26T06:48:30.307Z,11.94
2017-10-26T06:50:58.663Z,11.96
2017-10-26T06:53:27.050Z,12.14
2017-10-26T06:55:55.435Z,12.05
2017-10-26T06:58:23.796Z,12.03
2017-10-26T07:00:52.271Z,12.09
2017-10-26T07:03:20.650Z,12.09
2017-10-26T07:05:49.115Z,12.10
2017-10-26T07:08:17.506Z,12.13
2017-10-26T07:10:45.864Z,12.18
2017-10-26T07:13:14.238Z,12.16
2017-10-26T07:15:42.592Z,12.14
2017-10-26T07:18:10.984Z,12.20
2017-10-26T07:20:39.358Z,12.16
2017-10-26T07:23:07.710Z,12.26
2017-10-26T07:25:36.088Z,12.28
2017-10-26T07:28:04.446Z,12.34
2017-10-26T07:30:32.995Z,12.45
2017-10-26T07:33:01.343Z,12.47
2017-10-26T07:35:29.697Z,12.51
2017-10-26T07:37:58.046Z,12.51
2017-10-26T07:40:26.479Z,12.62
2017-10-26T07:42:54.867Z,12.77
2017-10-26T07:45:23.224Z,12.62
2017-10-26T07:47:51.603Z,12.62
2017-10-26T07:50:19.991Z,12.52
2017-10-26T07:52:48.369Z,12.71
2017-10-26T07:55:16.719Z,12.67
2017-10-26T07:57:45.162Z,12.63
2017-10-26T08:00:13.551Z,12.52
2017-10-26T08:02:41.989Z,12.44
2017-10-26T08:05:10.369Z,12.59
2017-10-26T08:07:38.727Z,12.67
2017-10-26T08:10:07.110Z,12.91
2017-10-26T08:12:35.479Z,12.92
2017-10-26T08:15:03.881Z,13.16
2017-10-26T08:17:32.246Z,13.06
2017-10-26T08:20:00.608Z,13.08
2017-10-26T08:22:28.952Z,13.22
2017-10-26T08:24:57.311Z,13.35
2017-10-26T08:27:25.684Z,13.55
2017-10-26T08:29:54.060Z,13.79
2017-10-26T08:32:22.443Z,14.15
2017-10-26T08:34:50.797Z,14.31
2017-10-26T08:37:19.153Z,14.80
2017-10-26T08:39:47.540Z,14.89
2017-10-26T08:42:15.888Z,15.06
2017-10-26T08:44:44.296Z,15.01
2017-10-26T08:47:12.647Z,15.27
2017-10-26T08:49:40.997Z,15.07
2017-10-26T08:52:09.371Z,14.87
2017-10-26T08:54:37.793Z,14.62
2017-10-26T08:57:06.267Z,14.40
2017-10-26T08:59:34.626Z,14.38
2017-10-26T09:02:02.970Z,14.26
2017-10-26T09:04:31.313Z,14.09
2017-10-26T09:06:59.658Z,14.21
2017-10-26T09:09:28.073Z,14.53
2017-10-26T09:11:56.414Z,14.49
2017-10-26T09:14:24.787Z,14.57
2017-10-26T09:16:53.164Z,14.31
2017-10-26T09:19:21.520Z,14.14
2017-10-26T09:21:49.873Z,14.30
2017-10-26T09:24:18.228Z,14.22
2017-10-26T09:26:46.598Z,14.35
2017-10-26T09:29:14.950Z,14.30
2017-10-26T09:31:43.299Z,14.32
2017-10-26T09:34:11.650Z,14.69
2017-10-26T09:36:39.996Z,14.81
2017-10-26T09:39:08.378Z,14.71
2017-10-26T09:41:36.727Z,14.75
2017-10-26T09:44:05.075Z,14.70
2017-10-26T09:46:33.414Z,14.64
2017-10-26T09:49:01.753Z,14.96
2017-10-26T09:51:30.106Z,15.18
2017-10-26T09:53:58.491Z,15.27
2017-10-26T09:56:26.882Z,15.10
2017-10-26T09:58:55.258Z,15.24
2017-10-26T10:01:23.666Z,15.19
2017-10-26T10:03:52.037Z,15.29
2017-10-26T10:06:20.386Z,14.97
2017-10-26T10:08:48.730Z,14.97
2017-10-26T10:11:17.997Z,14.71
2017-10-26T10:13:46.374Z,14.80
2017-10-26T10:16:27.710Z,14.85
2017-10-26T10:18:56.075Z,15.30
2017-10-26T10:21:24.464Z,15.29
2017-10-26T10:23:52.845Z,14.92
2017-10-26T10:26:21.218Z,15.07
2017-10-26T10:28:49.563Z,15.08
2017-10-26T10:31:17.926Z,14.52
2017-10-26T10:33:46.271Z,14.67
2017-10-26T10:36:14.610Z,14.61
2017-10-26T10:38:42.956Z,14.22
2017-10-26T10:41:11.299Z,14.41
2017-10-26T10:43:39.697Z,14.71
2017-10-26T10:46:08.050Z,15.31
2017-10-26T10:48:36.440Z,15.49
2017-10-26T10:51:05.693Z,15.73
2017-10-26T10:53:34.046Z,15.83
2017-10-26T10:56:02.391Z,15.59
2017-10-26T10:58:30.740Z,15.43
2017-10-26T11:00:59.095Z,15.28
2017-10-26T11:03:27.446Z,14.99
2017-10-26T11:05:55.842Z,15.03
2017-10-26T11:08:24.192Z,15.14
2017-10-26T11:10:52.571Z,15.25
2017-10-26T11:13:20.953Z,15.28
2017-10-26T11:15:49.303Z,15.25
2017-10-26T11:18:17.682Z,15.26
2017-10-26T11:20:46.068Z,15.50
2017-10-26T11:23:14.456Z,15.28
2017-10-26T11:25:42.806Z,15.09
2017-10-26T11:28:11.161Z,15.12
2017-10-26T11:30:39.508Z,15.36
2017-10-26T11:33:07.856Z,15.48
2017-10-26T11:35:36.206Z,15.54
2017-10-26T11:38:04.639Z,15.77
2017-10-26T11:40:33.011Z,16.28
2017-10-26T11:43:01.362Z,17.02
2017-10-26T11:45:29.693Z,17.26
2017-10-26T11:47:58.038Z,17.64
2017-10-26T11:50:26.425Z,16.71
2017-10-26T11:52:54.820Z,16.48
2017-10-26T11:55:23.187Z,15.76
2017-10-26T11:57:51.558Z,15.96
2017-10-26T12:00:19.943Z,16.96
2017-10-26T12:02:48.299Z,17.78
2017-10-26T12:05:16.630Z,17.97
2017-10-26T12:07:44.999Z,17.71
2017-10-26T12:10:13.349Z,18.51
2017-10-26T12:12:41.702Z,17.78
2017-10-26T12:15:10.039Z,17.02
2017-10-26T12:17:38.379Z,16.43
2017-10-26T12:20:06.724Z,15.95
2017-10-26T12:22:35.071Z,15.77
2017-10-26T12:25:03.441Z,15.83
2017-10-26T12:27:31.807Z,15.76
2017-10-26T12:30:00.147Z,15.72
2017-10-26T12:32:28.495Z,15.40
2017-10-26T12:34:56.836Z,15.39
2017-10-26T12:37:25.204Z,15.32
2017-10-26T12:39:53.575Z,15.33
2017-10-26T12:42:21.947Z,15.52
2017-10-26T12:44:50.288Z,15.47
2017-10-26T12:47:18.690Z,15.56
2017-10-26T12:49:47.058Z,15.51
2017-10-26T12:52:15.438Z,15.73
2017-10-26T12:54:43.779Z,15.59
2017-10-26T12:57:12.159Z,15.60
2017-10-26T12:59:40.490Z,15.57
2017-10-26T13:02:08.853Z,15.77
2017-10-26T13:04:37.215Z,16.40
2017-10-26T13:07:05.599Z,16.65
2017-10-26T13:09:33.934Z,16.55
2017-10-26T13:12:02.310Z,16.75
2017-10-26T13:14:30.657Z,16.83
2017-10-26T13:16:59.002Z,16.70
2017-10-26T13:19:27.358Z,16.71
2017-10-26T13:21:55.707Z,16.67
2017-10-26T13:24:24.074Z,16.68
2017-10-26T13:26:52.402Z,16.64
2017-10-26T13:29:20.748Z,16.70
2017-10-26T13:31:49.087Z,16.55
2017-10-26T13:34:17.557Z,16.24
2017-10-26T13:36:45.935Z,16.24
2017-10-26T13:39:14.275Z,15.93
2017-10-26T13:41:42.617Z,15.87
2017-10-26T13:44:11.015Z,15.99
2017-10-26T13:46:39.346Z,15.99
2017-10-26T13:49:07.680Z,15.83
2017-10-26T13:51:36.020Z,15.82
2017-10-26T13:54:04.391Z,15.85
2017-10-26T13:56:32.730Z,15.93
2017-10-26T13:59:01.213Z,15.89
2017-10-26T14:01:29.566Z,15.96
2017-10-26T14:03:57.953Z,16.04
2017-10-26T14:06:26.328Z,16.16
2017-10-26T14:08:55.498Z,16.26
2017-10-26T14:11:23.886Z,16.28
2017-10-26T14:13:52.239Z,16.12
2017-10-26T14:16:20.580Z,15.82
2017-10-26T14:18:49.115Z,15.65
2017-10-26T14:21:17.482Z,15.44
2017-10-26T14:23:45.856Z,15.47
2017-10-26T14:26:14.319Z,15.43
2017-10-26T14:28:42.735Z,15.44
2017-10-26T14:31:11.186Z,15.22
2017-10-26T14:33:39.560Z,15.35
2017-10-26T14:36:07.923Z,15.26
2017-10-26T14:38:36.291Z,15.15
2017-10-26T14:41:04.678Z,14.98
2017-10-26T14:43:33.029Z,15.03
2017-10-26T14:46:01.385Z,14.98
2017-10-26T14:48:29.740Z,14.90
2017-10-26T14:50:58.091Z,14.77
2017-10-26T14:53:26.445Z,14.83
2017-10-26T14:55:54.885Z,14.91
2017-10-26T14:58:23.252Z,15.01
2017-10-26T15:00:51.618Z,15.00
2017-10-26T15:03:19.975Z,14.83
2017-10-26T15:05:48.312Z,14.90
2017-10-26T15:08:16.677Z,14.71
2017-10-26T15:10:45.040Z,14.71
2017-10-26T15:13:13.416Z,14.71
2017-10-26T15:15:41.762Z,14.47
2017-10-26T15:18:10.128Z,14.53
2017-10-26T15:20:38.505Z,14.40
2017-10-26T15:23:06.847Z,14.45
2017-10-26T15:25:35.194Z,14.41
2017-10-26T15:28:03.539Z,14.34
2017-10-26T15:30:31.888Z,14.23
2017-10-26T15:33:00.253Z,14.34
2017-10-26T15:35:28.748Z,14.24
2017-10-26T15:37:57.114Z,14.10
2017-10-26T15:40:25.473Z,14.00
2017-10-26T15:42:53.834Z,14.09
2017-10-26T15:45:22.174Z,14.02
2017-10-26T15:47:50.540Z,14.03
2017-10-26T15:50:18.881Z,13.95
2017-10-26T15:52:47.252Z,13.88
2017-10-26T15:55:15.632Z,13.77
2017-10-26T15:57:43.979Z,13.83
2017-10-26T16:00:12.342Z,13.74
2017-10-26T16:02:40.748Z,13.88
2017-10-26T16:05:09.135Z,13.81
2017-10-26T16:07:37.487Z,13.71
2017-10-26T16:10:05.858Z,13.73
2017-10-26T16:12:34.202Z,13.59
2017-10-26T16:15:02.589Z,13.54
2017-10-26T16:17:30.946Z,13.56
2017-10-26T16:19:59.331Z,13.43
2017-10-26T16:22:27.700Z,13.47
2017-10-26T16:24:56.075Z,13.42
2017-10-26T16:27:24.414Z,13.61
2017-10-26T16:29:52.758Z,13.63
2017-10-26T16:32:21.145Z,13.59
2017-10-26T16:34:49.554Z,13.70
2017-10-26T16:37:17.966Z,13.73
2017-10-26T16:39:46.424Z,13.67
2017-10-26T16:42:14.784Z,13.57
2017-10-26T16:44:43.340Z,13.61
2017-10-26T16:47:11.835Z,13.67
2017-10-26T16:49:40.206Z,13.63
2017-10-26T16:52:08.590Z,13.59
2017-10-26T16:54:36.943Z,13.63
2017-10-26T16:57:05.322Z,13.62
2017-10-26T16:59:33.687Z,13.69
2017-10-26T17:02:02.975Z,13.66
2017-10-26T17:04:31.359Z,13.60
2017-10-26T17:06:59.708Z,13.51
2017-10-26T17:09:28.146Z,13.56
2017-10-26T17:11:56.509Z,13.61
2017-10-26T17:14:24.959Z,13.56
2017-10-26T17:16:53.309Z,13.67
2017-10-26T17:19:21.703Z,13.77
2017-10-26T17:21:50.089Z,13.67
2017-10-26T17:24:18.443Z,13.65
2017-10-26T17:26:46.799Z,13.45
2017-10-26T17:29:15.192Z,13.42
2017-10-26T17:31:43.563Z,13.38
2017-10-26T17:34:11.923Z,13.34
2017-10-26T17:36:41.210Z,13.13
2017-10-26T17:39:09.560Z,13.29
2017-10-26T17:41:37.931Z,13.23
2017-10-26T17:44:06.298Z,13.16
2017-10-26T17:46:34.803Z,13.17
2017-10-26T17:49:03.158Z,13.20
2017-10-26T17:51:31.512Z,13.21
2017-10-26T17:53:59.870Z,13.18
2017-10-26T17:56:28.260Z,13.22
2017-10-26T17:58:56.639Z,13.12
2017-10-26T18:01:24.980Z,13.12
2017-10-26T18:03:53.350Z,13.12
2017-10-26T18:08:48.306Z,13.15
2017-10-26T18:11:16.662Z,13.07
2017-10-26T18:13:45.043Z,13.08
2017-10-26T18:16:13.418Z,13.09
2017-10-26T18:18:41.776Z,12.98
2017-10-26T18:21:10.154Z,12.97
2017-10-26T18:23:38.542Z,12.99
2017-10-26T18:26:06.936Z,12.94
2017-10-26T18:28:35.322Z,12.80
2017-10-26T18:31:03.681Z,12.83
2017-10-26T18:33:32.036Z,12.97
2017-10-26T18:36:00.401Z,12.82
2017-10-26T18:38:28.751Z,12.82
2017-10-26T18:40:57.136Z,12.97
2017-10-26T18:43:25.506Z,12.94
2017-10-26T18:45:53.858Z,13.08
2017-10-26T18:48:22.211Z,13.10
2017-10-26T18:50:50.603Z,13.06
2017-10-26T18:53:18.972Z,13.13
2017-10-26T18:55:47.325Z,13.11
2017-10-26T18:58:15.687Z,13.07
2017-10-26T19:00:44.053Z,13.21
2017-10-26T19:03:12.467Z,13.09
2017-10-26T19:05:40.829Z,13.21
2017-10-26T19:08:09.197Z,13.07
2017-10-26T19:10:37.542Z,12.99
2017-10-26T19:13:05.935Z,13.21
2017-10-26T19:15:34.335Z,13.24
2017-10-26T19:18:02.679Z,13.15
2017-10-26T19:20:31.062Z,13.23
2017-10-26T19:22:59.419Z,13.24
2017-10-26T19:25:27.807Z,13.59
2017-10-26T19:27:56.178Z,13.57
2017-10-26T19:30:24.540Z,13.31
2017-10-26T19:32:52.944Z,13.23
2017-10-26T19:35:21.322Z,13.20
2017-10-26T19:37:49.687Z,13.34
2017-10-26T19:40:18.045Z,13.30
2017-10-26T19:42:46.432Z,13.13
2017-10-26T19:45:14.786Z,13.17
2017-10-26T19:47:43.147Z,13.21
2017-10-26T19:50:11.500Z,13.22
2017-10-26T19:52:39.897Z,13.30
2017-10-26T19:55:08.365Z,13.25
2017-10-26T19:57:36.757Z,13.17
2017-10-26T20:00:05.111Z,13.18
2017-10-26T20:02:33.511Z,13.22
2017-10-26T20:05:01.882Z,13.21
2017-10-26T20:07:30.239Z,13.11
2017-10-26T20:09:58.655Z,13.08
2017-10-26T20:12:27.023Z,13.04
2017-10-26T20:14:55.415Z,13.02
2017-10-26T20:17:23.776Z,13.02
2017-10-26T20:19:52.138Z,13.08
2017-10-26T20:22:20.825Z,13.19
2017-10-26T20:24:49.210Z,13.05
2017-10-26T20:27:18.041Z,12.82
2017-10-26T20:29:46.443Z,12.78
2017-10-26T20:32:14.799Z,12.55
2017-10-26T20:34:43.166Z,12.43
2017-10-26T20:37:11.540Z,12.21
2017-10-26T20:39:39.900Z,12.17
2017-10-26T20:42:08.254Z,12.09
2017-10-26T20:44:36.746Z,12.20
2017-10-26T20:47:05.128Z,12.10
2017-10-26T20:49:39.180Z,12.09
2017-10-26T20:52:13.312Z,12.12
2017-10-26T20:54:47.142Z,11.84
2017-10-26T20:57:21.128Z,11.74
2017-10-26T20:59:55.089Z,11.79
2017-10-26T21:02:29.106Z,11.71
2017-10-26T21:05:02.973Z,11.74
2017-10-26T21:07:36.947Z,11.65
2017-10-26T21:10:05.299Z,11.82
2017-10-26T21:15:40.780Z,11.62
2017-10-26T21:18:09.139Z,11.68
2017-10-26T21:20:37.773Z,11.59
2017-10-26T21:23:06.142Z,11.72
2017-10-26T21:25:34.543Z,11.76
2017-10-26T21:28:02.933Z,11.74
2017-10-26T21:30:31.315Z,11.68
2017-10-26T21:32:59.783Z,11.56
2017-10-26T21:35:28.134Z,11.57
2017-10-26T21:37:56.510Z,11.54
2017-10-26T21:40:24.880Z,11.47
2017-10-26T21:42:53.280Z,11.47
2017-10-26T21:45:21.635Z,11.41
2017-10-26T21:47:49.974Z,11.35
2017-10-26T21:50:18.334Z,11.40
2017-10-26T21:52:46.690Z,11.45
2017-10-26T21:55:15.086Z,11.34
2017-10-26T21:57:43.468Z,11.38
2017-10-26T22:00:11.841Z,11.50
2017-10-26T22:02:40.238Z,11.56
2017-10-26T22:05:08.595Z,11.52
2017-10-26T22:07:36.979Z,11.58
2017-10-26T22:10:05.334Z,11.53
2017-10-26T22:12:33.696Z,11.57
2017-10-26T22:15:02.064Z,11.52
2017-10-26T22:17:30.422Z,11.48
2017-10-26T22:19:58.807Z,11.43
2017-10-26T22:22:27.164Z,11.47
2017-10-26T22:24:55.533Z,11.28
2017-10-26T22:27:23.898Z,11.26
2017-10-26T22:29:52.273Z,11.34
2017-10-26T22:32:20.650Z,11.43
2017-10-26T22:34:49.005Z,11.48
2017-10-26T22:37:17.395Z,11.43
2017-10-26T22:39:45.775Z,11.46
2017-10-26T22:42:14.128Z,11.40
2017-10-26T22:44:42.483Z,11.26
2017-10-26T22:47:10.929Z,11.22
2017-10-26T22:49:39.302Z,11.15
2017-10-26T22:52:07.663Z,11.15
2017-10-26T22:54:36.022Z,11.13
2017-10-26T22:57:04.414Z,11.12
2017-10-26T22:59:32.768Z,11.07
2017-10-26T23:02:01.119Z,11.06
2017-10-26T23:04:29.484Z,11.05
2017-10-26T23:06:57.878Z,11.04
2017-10-26T23:09:26.251Z,11.06
2017-10-26T23:11:54.644Z,11.05
2017-10-26T23:14:23.141Z,11.10
2017-10-26T23:16:51.488Z,11.03
2017-10-26T23:19:19.844Z,11.08
2017-10-26T23:21:48.193Z,11.05
2017-10-26T23:24:16.575Z,11.00
2017-10-26T23:26:44.947Z,10.96
2017-10-26T23:29:13.323Z,10.94
2017-10-26T23:31:41.675Z,10.96
2017-10-26T23:34:10.280Z,11.03
2017-10-26T23:36:38.727Z,11.20
2017-10-26T23:39:07.119Z,11.11
2017-10-26T23:41:35.488Z,11.05
2017-10-26T23:44:03.840Z,11.05
2017-10-26T23:46:32.190Z,11.04
2017-10-26T23:49:00.579Z,11.01
2017-10-26T23:51:28.946Z,11.02
2017-10-26T23:53:57.335Z,11.04
2017-10-26T23:56:25.688Z,11.04
2017-10-26T23:58:54.104Z,10.89
